Weather observations for the past three days for
Palmdale, Palmdale Production Flight Plant
Imperial (Metric)
Date Time (pdt) Wind (mph) Vis. (mi.) Weather Sky Cond. Temperature (ºF) Relative Humidity Wind Chill (°F) Heat Index (°F) Pressure Precipitation (in)
Air Dwpt 6 hour altimeter (in) sea level (mb) 1 hr 3 hr 6 hr
Max. Min.
09 07:53 S 6 10.00 Fair CLR 69.1 33.1 26% 29.97 1012.4
09 06:53 SW 6 10.00 Fair CLR 59 33.1 38% 29.97 1012.6
09 05:53 SW 6 10.00 Fair CLR 53.1 34 48% 29.96 1012.3
09 04:53 S 6 10.00 Fair CLR 53.1 37 69.1 52 55% 29.95 1012.0
09 03:53 SW 5 10.00 Fair CLR 55.9 37 49% 29.95 1011.8
09 02:53 S 9 10.00 Fair CLR 57 39 51% 29.95 1011.8
09 01:53 SW 6 10.00 Fair CLR 59 39 48% 29.96 1011.8
09 00:53 S 8 10.00 Fair CLR 63 42.1 47% 29.97 1012.2
08 23:53 SW 10 10.00 Fair CLR 64 43 46% 29.98 1012.4
08 22:53 SW 10 10.00 Fair CLR 68 46 87.1 66.9 45% 29.98 1012.6
08 21:53 S 8 10.00 Fair CLR 69.1 46.9 45% 29.98 1012.5
08 20:53 SW 7 10.00 Fair CLR 70 46.9 44% 29.96 1012.1
08 19:53 SW 9 10.00 Fair CLR 75 50 42% 78 29.94 1011.3
08 18:53 W 16 10.00 Fair CLR 81 45 28% 80 29.92 1010.7
08 17:53 W 17 10.00 Fair CLR 84 48 29% 82 29.92 1010.8
08 16:53 W 20 10.00 Fair CLR 87.1 46.9 91 82 25% 84 29.92 1010.8
08 15:53 W 14 G 22 10.00 Fair CLR 90 45 21% 86 29.92 1010.8
08 14:53 W 10 G 21 10.00 Fair CLR 89.1 46 23% 86 29.94 1011.1
08 13:53 Calm 10.00 Fair CLR 90 39.9 17% 86 29.95 1011.6
08 12:53 W 8 10.00 Fair CLR 88 37.9 17% 84 29.97 1012.3
08 11:53 W 8 10.00 Fair CLR 86 41 20% 83 29.99 1013.0
08 10:53 NW 6 10.00 Fair CLR 82 42.1 82.9 57 24% 80 30.01 1013.6
08 08:53 W 6 10.00 Fair CLR 75.9 43 31% 77 30.02 1013.9
08 07:53 SW 6 10.00 Fair CLR 73 43 34% 30.03 1014.1
08 06:53 SW 7 10.00 Fair CLR 66.9 43 42% 30.01 1013.6
08 05:53 SW 9 10.00 Fair CLR 57 39.9 53% 30 1013.5
08 04:53 SW 8 10.00 Fair CLR 57 39 70 55.9 51% 29.99 1013.1
08 03:53 SW 9 10.00 Fair CLR 57.9 39 50% 29.99 1012.9
08 02:53 S 7 10.00 Fair CLR 61 41 48% 29.99 1013.0
08 01:53 S 8 10.00 Fair CLR 61 37 41% 30 1013.3
08 00:53 SW 8 10.00 Fair CLR 64 37.9 38% 30.01 1013.7
07 23:53 SW 9 10.00 Fair CLR 64 43 46% 30.01 1013.7
07 22:53 SW 8 10.00 Fair CLR 70 41 89.1 68 35% 30.01 1013.7
07 21:53 SW 8 10.00 Fair CLR 72 43 35% 30.01 1013.7
07 20:53 W 16 10.00 Fair CLR 73.9 44.1 34% 30 1013.3
07 19:53 W 17 G 30 10.00 Fair CLR 77 43 30% 78 29.97 1012.6
07 18:53 W 22 G 30 10.00 Fair and Breezy CLR 82 41 23% 80 29.96 1012.3
07 17:53 W 18 G 26 10.00 Fair CLR 86 37.9 18% 83 29.95 1012.1
07 16:53 W 20 G 28 10.00 Fair CLR 89.1 37 91.9 80.1 16% 85 29.94 1011.9
07 15:53 SW 16 G 29 10.00 Fair CLR 90 42.1 19% 86 29.94 1011.5
07 14:53 W 9 G 17 10.00 Fair CLR 90 36 15% 86 29.96 1011.9
07 13:53 NW 7 G 17 10.00 Fair CLR 89.1 25 10% 85 29.98 1012.8
07 12:53 Vrbl 6 10.00 Fair CLR 87.1 32 14% 83 30 1013.4
07 11:53 Vrbl 3 10.00 Fair CLR 84.9 34 16% 82 30.03 1014.4
07 10:53 Vrbl 3 10.00 Fair CLR 80.1 36 81 51.1 20% 79 30.05 1015.2
07 09:53 E 3 10.00 Fair CLR 77 37.9 24% 77 30.06 1015.5
07 08:53 S 5 10.00 Fair CLR 72 37.9 29% 30.06 1015.9
07 07:53 SE 6 10.00 Fair CLR 66 37.9 36% 30.07 1016.1
07 06:53 S 5 10.00 Fair CLR 57 39 51% 30.06 1015.7
07 05:53 S 7 10.00 Fair CLR 52 37.9 59% 30.05 1015.3
07 04:53 S 6 10.00 Fair CLR 51.1 37.9 64 51.1 61% 30.05 1015.6
07 03:53 Calm 10.00 Fair CLR 54 39 57% 30.05 1015.4
07 02:53 SW 3 10.00 Fair CLR 55.9 41 57% 30.05 1015.4
07 01:53 S 5 10.00 Fair CLR 57 42.1 58% 30.06 1015.7
07 00:53 SW 7 10.00 Fair CLR 62.1 43 50% 30.06 1015.6
06 23:53 S 8 10.00 Fair CLR 62.1 45 54% 30.06 1015.8
06 22:53 S 8 10.00 Fair CLR 64 46 84 63 52% 30.05 1015.6
06 21:53 SW 7 10.00 Fair CLR 66.9 46 47% 30.04 1015.5
06 20:53 SW 5 10.00 Fair CLR 68 46.9 47% 30.03 1015.1
06 19:53 SW 7 10.00 Fair CLR 72 46 40% 30.01 1014.3
06 18:53 W 9 10.00 Fair CLR 78.1 43 29% 78 29.99 1013.7
06 17:53 N 13 G 22 10.00 Fair CLR 82.9 30 15% 80 29.99 1013.5
06 16:53 Calm 10.00 Fair CLR 82.9 30 84 69.1 15% 80 29.98 1013.5
06 15:53 NE 10 G 21 10.00 Fair CLR 82.9 30 15% 80 29.99 1013.8
06 14:53 N 9 G 20 10.00 Fair CLR 82 34 18% 80 30.01 1014.5
06 13:53 Vrbl 6 10.00 Fair CLR 79 35.1 20% 78 30.03 1015.1
06 12:53 NW 8 10.00 Fair CLR 77 36 23% 77 30.05 1015.8
06 11:53 Calm 10.00 Fair CLR 72 37 28% 30.06 1016.4
06 10:53 Calm 10.00 Fair CLR 69.1 39 69.1 46.9 33% 30.07 1016.9
06 09:53 Calm 10.00 Fair CLR 64 39 40% 30.07 1017.2
06 08:53 Calm 10.00 Fair CLR 61 39.9 46% 30.08 1017.3
Date Time (pdt) Wind (mph) Vis. (mi.) Weather Sky Cond. Air Dwpt Max. Min. Relative Humidity Wind Chill (°F) Heat Index (°F) altimeter (in) sea level (mb) 1 hr 3 hr 6 hr
6 hour
Temperature (ºF) Pressure Precipitation (in)